sensor_id;sensor_type;location;lat;lon;timestamp;pressure;altitude;pressure_sealevel;temperature;humidity
12987;BME280;58897;51.960;5.582;2023-05-25T00:00:42;102287.63;;;10.88;100.00
12987;BME280;58897;51.960;5.582;2023-05-25T00:03:26;102291.66;;;10.94;100.00
12987;BME280;58897;51.960;5.582;2023-05-25T00:05:53;102288.75;;;10.86;100.00
12987;BME280;58897;51.960;5.582;2023-05-25T00:08:20;102292.22;;;10.77;100.00
12987;BME280;58897;51.960;5.582;2023-05-25T00:10:47;102283.28;;;10.76;100.00
12987;BME280;58897;51.960;5.582;2023-05-25T00:13:13;102289.41;;;10.78;100.00
12987;BME280;58897;51.960;5.582;2023-05-25T00:15:40;102283.56;;;10.62;100.00
12987;BME280;58897;51.960;5.582;2023-05-25T00:18:06;102286.91;;;10.54;100.00
12987;BME280;58897;51.960;5.582;2023-05-25T00:20:33;102284.91;;;10.68;100.00
12987;BME280;58897;51.960;5.582;2023-05-25T00:22:59;102282.69;;;10.62;100.00
12987;BME280;58897;51.960;5.582;2023-05-25T00:25:28;102287.44;;;10.69;100.00
12987;BME280;58897;51.960;5.582;2023-05-25T00:27:54;102288.94;;;10.73;100.00
12987;BME280;58897;51.960;5.582;2023-05-25T00:30:21;102289.50;;;10.77;100.00
12987;BME280;58897;51.960;5.582;2023-05-25T00:32:48;102295.84;;;10.66;100.00
12987;BME280;58897;51.960;5.582;2023-05-25T00:35:14;102299.31;;;10.57;100.00
12987;BME280;58897;51.960;5.582;2023-05-25T00:37:41;102288.25;;;10.60;100.00
12987;BME280;58897;51.960;5.582;2023-05-25T00:40:09;102282.38;;;10.55;100.00
12987;BME280;58897;51.960;5.582;2023-05-25T00:42:39;102292.31;;;10.54;100.00
12987;BME280;58897;51.960;5.582;2023-05-25T00:45:06;102292.31;;;10.54;100.00
12987;BME280;58897;51.960;5.582;2023-05-25T00:47:33;102294.03;;;10.56;100.00
12987;BME280;58897;51.960;5.582;2023-05-25T00:50:00;102295.00;;;10.54;100.00
12987;BME280;58897;51.960;5.582;2023-05-25T00:52:27;102291.00;;;10.38;100.00
12987;BME280;58897;51.960;5.582;2023-05-25T00:54:54;102293.47;;;10.41;100.00
12987;BME280;58897;51.960;5.582;2023-05-25T00:57:27;102288.69;;;10.33;100.00
12987;BME280;58897;51.960;5.582;2023-05-25T00:59:56;102293.97;;;10.35;100.00
12987;BME280;58897;51.960;5.582;2023-05-25T01:02:24;102290.78;;;10.30;100.00
12987;BME280;58897;51.960;5.582;2023-05-25T01:04:55;102295.13;;;10.21;100.00
12987;BME280;58897;51.960;5.582;2023-05-25T01:07:26;102298.53;;;10.23;100.00
12987;BME280;58897;51.960;5.582;2023-05-25T01:09:59;102297.91;;;10.31;100.00
12987;BME280;58897;51.960;5.582;2023-05-25T01:12:28;102292.66;;;10.29;100.00
12987;BME280;58897;51.960;5.582;2023-05-25T01:14:55;102299.03;;;10.28;100.00
12987;BME280;58897;51.960;5.582;2023-05-25T01:17:22;102310.84;;;10.16;100.00
12987;BME280;58897;51.960;5.582;2023-05-25T01:19:48;102304.19;;;10.20;100.00
12987;BME280;58897;51.960;5.582;2023-05-25T01:22:40;102312.69;;;10.16;100.00
12987;BME280;58897;51.960;5.582;2023-05-25T01:25:13;102315.72;;;10.11;100.00
12987;BME280;58897;51.960;5.582;2023-05-25T01:27:44;102318.53;;;10.10;100.00
12987;BME280;58897;51.960;5.582;2023-05-25T01:30:14;102317.47;;;10.12;100.00
12987;BME280;58897;51.960;5.582;2023-05-25T01:32:42;102324.78;;;10.10;100.00
12987;BME280;58897;51.960;5.582;2023-05-25T01:35:09;102320.50;;;10.08;100.00
12987;BME280;58897;51.960;5.582;2023-05-25T01:37:46;102321.63;;;10.05;100.00
12987;BME280;58897;51.960;5.582;2023-05-25T01:40:13;102329.22;;;10.11;100.00
12987;BME280;58897;51.960;5.582;2023-05-25T01:42:41;102333.75;;;10.11;100.00
12987;BME280;58897;51.960;5.582;2023-05-25T01:45:11;102338.19;;;10.01;100.00
12987;BME280;58897;51.960;5.582;2023-05-25T01:51:00;102341.38;;;9.94;100.00
12987;BME280;58897;51.960;5.582;2023-05-25T01:53:33;102340.25;;;9.86;100.00
12987;BME280;58897;51.960;5.582;2023-05-25T01:56:05;102342.59;;;9.79;100.00
12987;BME280;58897;51.960;5.582;2023-05-25T01:58:42;102339.28;;;9.87;100.00
12987;BME280;58897;51.960;5.582;2023-05-25T02:01:11;102340.03;;;9.89;100.00
12987;BME280;58897;51.960;5.582;2023-05-25T02:03:40;102338.31;;;9.88;100.00
12987;BME280;58897;51.960;5.582;2023-05-25T02:06:07;102344.69;;;9.76;100.00
12987;BME280;58897;51.960;5.582;2023-05-25T02:08:34;102341.25;;;9.85;100.00
12987;BME280;58897;51.960;5.582;2023-05-25T02:11:02;102340.41;;;9.84;100.00
12987;BME280;58897;51.960;5.582;2023-05-25T02:13:28;102332.53;;;9.81;100.00
12987;BME280;58897;51.960;5.582;2023-05-25T02:15:55;102338.44;;;9.86;100.00
12987;BME280;58897;51.960;5.582;2023-05-25T02:18:21;102334.84;;;9.86;100.00
12987;BME280;58897;51.960;5.582;2023-05-25T02:20:48;102332.28;;;9.73;100.00
12987;BME280;58897;51.960;5.582;2023-05-25T02:23:15;102337.59;;;9.75;100.00
12987;BME280;58897;51.960;5.582;2023-05-25T02:25:44;102338.41;;;9.75;100.00
12987;BME280;58897;51.960;5.582;2023-05-25T02:28:11;102335.47;;;9.78;100.00
12987;BME280;58897;51.960;5.582;2023-05-25T02:30:37;102337.06;;;9.81;100.00
12987;BME280;58897;51.960;5.582;2023-05-25T02:33:04;102334.75;;;9.76;100.00
12987;BME280;58897;51.960;5.582;2023-05-25T02:35:31;102331.09;;;9.77;100.00
12987;BME280;58897;51.960;5.582;2023-05-25T02:37:57;102329.09;;;9.68;100.00
12987;BME280;58897;51.960;5.582;2023-05-25T02:40:24;102330.59;;;9.72;100.00
12987;BME280;58897;51.960;5.582;2023-05-25T02:42:50;102332.16;;;9.64;100.00
12987;BME280;58897;51.960;5.582;2023-05-25T02:45:17;102334.25;;;9.60;100.00
12987;BME280;58897;51.960;5.582;2023-05-25T02:47:43;102335.84;;;9.63;100.00
12987;BME280;58897;51.960;5.582;2023-05-25T02:50:10;102341.84;;;9.66;100.00
12987;BME280;58897;51.960;5.582;2023-05-25T02:52:36;102342.72;;;9.67;100.00
12987;BME280;58897;51.960;5.582;2023-05-25T02:55:03;102338.91;;;9.58;100.00
12987;BME280;58897;51.960;5.582;2023-05-25T02:57:31;102346.25;;;9.56;100.00
12987;BME280;58897;51.960;5.582;2023-05-25T02:59:57;102343.91;;;9.52;100.00
12987;BME280;58897;51.960;5.582;2023-05-25T03:02:24;102349.66;;;9.47;100.00
12987;BME280;58897;51.960;5.582;2023-05-25T03:04:51;102339.34;;;9.41;100.00
12987;BME280;58897;51.960;5.582;2023-05-25T03:07:19;102359.72;;;9.45;100.00
12987;BME280;58897;51.960;5.582;2023-05-25T03:09:46;102352.34;;;9.36;100.00
12987;BME280;58897;51.960;5.582;2023-05-25T03:12:13;102357.84;;;9.35;100.00
12987;BME280;58897;51.960;5.582;2023-05-25T03:14:39;102356.13;;;9.33;100.00
12987;BME280;58897;51.960;5.582;2023-05-25T03:17:06;102353.94;;;9.27;100.00
12987;BME280;58897;51.960;5.582;2023-05-25T03:19:32;102360.06;;;9.29;100.00
12987;BME280;58897;51.960;5.582;2023-05-25T03:21:59;102358.97;;;9.32;100.00
12987;BME280;58897;51.960;5.582;2023-05-25T03:24:26;102356.63;;;9.39;100.00
12987;BME280;58897;51.960;5.582;2023-05-25T03:26:52;102356.63;;;9.39;100.00
12987;BME280;58897;51.960;5.582;2023-05-25T03:29:19;102354.47;;;9.44;100.00
12987;BME280;58897;51.960;5.582;2023-05-25T03:31:45;102359.00;;;9.43;100.00
12987;BME280;58897;51.960;5.582;2023-05-25T03:34:12;102354.94;;;9.38;100.00
12987;BME280;58897;51.960;5.582;2023-05-25T03:36:38;102352.84;;;9.41;100.00
12987;BME280;58897;51.960;5.582;2023-05-25T03:39:05;102361.19;;;9.38;100.00
12987;BME280;58897;51.960;5.582;2023-05-25T03:41:32;102357.50;;;9.28;100.00
12987;BME280;58897;51.960;5.582;2023-05-25T03:43:58;102357.41;;;9.41;100.00
12987;BME280;58897;51.960;5.582;2023-05-25T03:46:25;102364.34;;;9.32;100.00
12987;BME280;58897;51.960;5.582;2023-05-25T03:48:52;102366.19;;;9.31;100.00
12987;BME280;58897;51.960;5.582;2023-05-25T03:51:18;102364.13;;;9.35;100.00
12987;BME280;58897;51.960;5.582;2023-05-25T03:53:45;102370.25;;;9.37;100.00
12987;BME280;58897;51.960;5.582;2023-05-25T03:56:11;102370.72;;;9.31;100.00
12987;BME280;58897;51.960;5.582;2023-05-25T03:58:38;102369.25;;;9.27;100.00
12987;BME280;58897;51.960;5.582;2023-05-25T04:01:04;102382.38;;;9.31;100.00
12987;BME280;58897;51.960;5.582;2023-05-25T04:03:31;102382.25;;;9.33;100.00
12987;BME280;58897;51.960;5.582;2023-05-25T04:05:58;102380.50;;;9.21;100.00
12987;BME280;58897;51.960;5.582;2023-05-25T04:08:25;102382.59;;;9.28;100.00
12987;BME280;58897;51.960;5.582;2023-05-25T04:10:54;102387.53;;;9.35;100.00
12987;BME280;58897;51.960;5.582;2023-05-25T04:13:21;102388.25;;;9.37;100.00
12987;BME280;58897;51.960;5.582;2023-05-25T04:15:48;102387.28;;;9.38;100.00
12987;BME280;58897;51.960;5.582;2023-05-25T04:18:15;102393.41;;;9.40;100.00
12987;BME280;58897;51.960;5.582;2023-05-25T04:20:44;102388.75;;;9.42;100.00
12987;BME280;58897;51.960;5.582;2023-05-25T04:23:11;102391.59;;;9.40;100.00
12987;BME280;58897;51.960;5.582;2023-05-25T04:25:37;102388.00;;;9.28;100.00
12987;BME280;58897;51.960;5.582;2023-05-25T04:28:04;102387.41;;;9.36;100.00
12987;BME280;58897;51.960;5.582;2023-05-25T04:30:33;102392.91;;;9.35;100.00
12987;BME280;58897;51.960;5.582;2023-05-25T04:33:01;102391.13;;;9.46;100.00
12987;BME280;58897;51.960;5.582;2023-05-25T04:35:29;102389.25;;;9.47;100.00
12987;BME280;58897;51.960;5.582;2023-05-25T04:37:57;102398.38;;;9.57;100.00
12987;BME280;58897;51.960;5.582;2023-05-25T04:40:25;102400.69;;;9.50;100.00
12987;BME280;58897;51.960;5.582;2023-05-25T04:42:53;102398.63;;;9.54;100.00
12987;BME280;58897;51.960;5.582;2023-05-25T04:45:21;102401.09;;;9.57;100.00
12987;BME280;58897;51.960;5.582;2023-05-25T04:47:49;102401.19;;;9.55;100.00
12987;BME280;58897;51.960;5.582;2023-05-25T04:50:16;102404.63;;;9.57;100.00
12987;BME280;58897;51.960;5.582;2023-05-25T04:52:43;102409.06;;;9.58;100.00
12987;BME280;58897;51.960;5.582;2023-05-25T04:55:09;102411.25;;;9.53;100.00
12987;BME280;58897;51.960;5.582;2023-05-25T04:57:36;102414.31;;;9.60;100.00
12987;BME280;58897;51.960;5.582;2023-05-25T05:00:03;102420.97;;;9.67;100.00
12987;BME280;58897;51.960;5.582;2023-05-25T05:02:31;102427.56;;;9.63;100.00
12987;BME280;58897;51.960;5.582;2023-05-25T05:04:57;102427.97;;;9.69;100.00
12987;BME280;58897;51.960;5.582;2023-05-25T05:07:24;102430.31;;;9.74;100.00
12987;BME280;58897;51.960;5.582;2023-05-25T05:09:50;102440.38;;;9.83;100.00
12987;BME280;58897;51.960;5.582;2023-05-25T05:12:17;102444.31;;;9.90;100.00
12987;BME280;58897;51.960;5.582;2023-05-25T05:14:43;102448.84;;;9.89;100.00
12987;BME280;58897;51.960;5.582;2023-05-25T05:17:10;102450.09;;;9.97;100.00
12987;BME280;58897;51.960;5.582;2023-05-25T05:19:38;102446.28;;;9.99;100.00
12987;BME280;58897;51.960;5.582;2023-05-25T05:22:04;102450.81;;;9.99;100.00
12987;BME280;58897;51.960;5.582;2023-05-25T05:24:31;102450.31;;;9.93;100.00
12987;BME280;58897;51.960;5.582;2023-05-25T05:26:57;102449.63;;;10.03;100.00
12987;BME280;58897;51.960;5.582;2023-05-25T05:29:24;102455.88;;;10.03;100.00
12987;BME280;58897;51.960;5.582;2023-05-25T05:31:56;102456.75;;;10.15;100.00
12987;BME280;58897;51.960;5.582;2023-05-25T05:34:23;102451.13;;;10.18;100.00
12987;BME280;58897;51.960;5.582;2023-05-25T05:36:49;102452.09;;;10.28;100.00
12987;BME280;58897;51.960;5.582;2023-05-25T05:39:24;102457.28;;;10.31;100.00
12987;BME280;58897;51.960;5.582;2023-05-25T05:41:51;102455.53;;;10.30;100.00
12987;BME280;58897;51.960;5.582;2023-05-25T05:44:19;102460.69;;;10.33;100.00
12987;BME280;58897;51.960;5.582;2023-05-25T05:46:47;102465.84;;;10.25;100.00
12987;BME280;58897;51.960;5.582;2023-05-25T05:49:14;102475.56;;;10.38;100.00
12987;BME280;58897;51.960;5.582;2023-05-25T05:51:40;102468.56;;;10.58;100.00
12987;BME280;58897;51.960;5.582;2023-05-25T05:54:07;102475.91;;;10.67;100.00
12987;BME280;58897;51.960;5.582;2023-05-25T05:56:33;102474.06;;;10.79;100.00
12987;BME280;58897;51.960;5.582;2023-05-25T05:59:00;102469.88;;;10.75;100.00
12987;BME280;58897;51.960;5.582;2023-05-25T06:01:26;102474.31;;;10.76;100.00
12987;BME280;58897;51.960;5.582;2023-05-25T06:03:53;102478.94;;;10.96;100.00
12987;BME280;58897;51.960;5.582;2023-05-25T06:06:20;102484.97;;;10.99;100.00
12987;BME280;58897;51.960;5.582;2023-05-25T06:08:47;102486.16;;;11.18;100.00
12987;BME280;58897;51.960;5.582;2023-05-25T06:11:13;102480.44;;;11.32;100.00
12987;BME280;58897;51.960;5.582;2023-05-25T06:13:40;102485.91;;;11.21;100.00
12987;BME280;58897;51.960;5.582;2023-05-25T06:16:06;102480.19;;;11.35;100.00
12987;BME280;58897;51.960;5.582;2023-05-25T06:18:33;102483.28;;;11.62;100.00
12987;BME280;58897;51.960;5.582;2023-05-25T06:21:00;102478.34;;;11.88;100.00
12987;BME280;58897;51.960;5.582;2023-05-25T06:23:27;102473.91;;;12.07;100.00
12987;BME280;58897;51.960;5.582;2023-05-25T06:25:54;102485.56;;;12.28;100.00
12987;BME280;58897;51.960;5.582;2023-05-25T06:28:20;102484.44;;;12.31;100.00
12987;BME280;58897;51.960;5.582;2023-05-25T06:30:47;102475.94;;;12.75;100.00
12987;BME280;58897;51.960;5.582;2023-05-25T06:33:13;102471.66;;;13.32;100.00
12987;BME280;58897;51.960;5.582;2023-05-25T06:35:40;102466.22;;;13.41;100.00
12987;BME280;58897;51.960;5.582;2023-05-25T06:38:07;102466.78;;;13.64;100.00
12987;BME280;58897;51.960;5.582;2023-05-25T06:40:33;102466.34;;;13.78;100.00
12987;BME280;58897;51.960;5.582;2023-05-25T06:43:00;102471.06;;;13.38;100.00
12987;BME280;58897;51.960;5.582;2023-05-25T06:45:26;102480.50;;;13.43;100.00
12987;BME280;58897;51.960;5.582;2023-05-25T06:47:53;102480.06;;;13.48;100.00
12987;BME280;58897;51.960;5.582;2023-05-25T06:50:20;102488.38;;;13.66;100.00
12987;BME280;58897;51.960;5.582;2023-05-25T06:52:47;102483.59;;;14.06;100.00
12987;BME280;58897;51.960;5.582;2023-05-25T06:55:13;102490.19;;;14.03;100.00
12987;BME280;58897;51.960;5.582;2023-05-25T06:57:40;102486.19;;;14.91;100.00
12987;BME280;58897;51.960;5.582;2023-05-25T07:00:07;102483.19;;;14.84;100.00
12987;BME280;58897;51.960;5.582;2023-05-25T07:02:37;102479.72;;;14.64;100.00
12987;BME280;58897;51.960;5.582;2023-05-25T07:05:04;102483.97;;;15.21;100.00
12987;BME280;58897;51.960;5.582;2023-05-25T07:07:31;102482.22;;;15.03;100.00
12987;BME280;58897;51.960;5.582;2023-05-25T07:09:58;102486.00;;;14.92;100.00
12987;BME280;58897;51.960;5.582;2023-05-25T07:12:24;102479.75;;;15.09;100.00
12987;BME280;58897;51.960;5.582;2023-05-25T07:14:51;102483.09;;;15.21;100.00
12987;BME280;58897;51.960;5.582;2023-05-25T07:17:17;102486.28;;;15.16;100.00
12987;BME280;58897;51.960;5.582;2023-05-25T07:19:44;102478.38;;;15.40;100.00
12987;BME280;58897;51.960;5.582;2023-05-25T07:22:11;102485.88;;;14.94;100.00
12987;BME280;58897;51.960;5.582;2023-05-25T07:24:38;102484.75;;;15.14;100.00
12987;BME280;58897;51.960;5.582;2023-05-25T07:27:04;102489.09;;;15.24;100.00
12987;BME280;58897;51.960;5.582;2023-05-25T07:29:32;102484.19;;;15.10;100.00
12987;BME280;58897;51.960;5.582;2023-05-25T07:31:58;102482.59;;;15.35;100.00
12987;BME280;58897;51.960;5.582;2023-05-25T07:34:25;102482.13;;;15.39;100.00
12987;BME280;58897;51.960;5.582;2023-05-25T07:36:53;102485.59;;;16.02;100.00
12987;BME280;58897;51.960;5.582;2023-05-25T07:39:19;102490.53;;;15.81;100.00
12987;BME280;58897;51.960;5.582;2023-05-25T07:41:46;102494.97;;;15.82;100.00
12987;BME280;58897;51.960;5.582;2023-05-25T07:44:12;102498.41;;;15.49;100.00
12987;BME280;58897;51.960;5.582;2023-05-25T07:46:39;102502.25;;;15.29;100.00
12987;BME280;58897;51.960;5.582;2023-05-25T07:49:06;102512.66;;;15.33;100.00
12987;BME280;58897;51.960;5.582;2023-05-25T07:51:37;102509.41;;;15.30;100.00
12987;BME280;58897;51.960;5.582;2023-05-25T07:54:04;102507.38;;;14.87;100.00
12987;BME280;58897;51.960;5.582;2023-05-25T07:56:30;102510.25;;;15.30;100.00
12987;BME280;58897;51.960;5.582;2023-05-25T07:58:57;102508.69;;;15.55;100.00
12987;BME280;58897;51.960;5.582;2023-05-25T08:01:25;102515.59;;;15.50;100.00
12987;BME280;58897;51.960;5.582;2023-05-25T08:03:52;102509.69;;;15.72;100.00
12987;BME280;58897;51.960;5.582;2023-05-25T08:06:19;102519.94;;;15.78;100.00
12987;BME280;58897;51.960;5.582;2023-05-25T08:08:46;102515.59;;;15.67;100.00
12987;BME280;58897;51.960;5.582;2023-05-25T08:11:13;102513.72;;;16.03;100.00
12987;BME280;58897;51.960;5.582;2023-05-25T08:13:40;102523.78;;;15.85;100.00
12987;BME280;58897;51.960;5.582;2023-05-25T08:16:07;102536.00;;;15.36;100.00
12987;BME280;58897;51.960;5.582;2023-05-25T08:18:34;102530.38;;;15.47;100.00
12987;BME280;58897;51.960;5.582;2023-05-25T08:21:01;102532.28;;;15.64;100.00
12987;BME280;58897;51.960;5.582;2023-05-25T08:23:27;102530.41;;;15.82;100.00
12987;BME280;58897;51.960;5.582;2023-05-25T08:25:54;102521.69;;;15.79;100.00
12987;BME280;58897;51.960;5.582;2023-05-25T08:28:21;102539.72;;;15.17;100.00
12987;BME280;58897;51.960;5.582;2023-05-25T08:30:47;102537.47;;;15.30;100.00
12987;BME280;58897;51.960;5.582;2023-05-25T08:33:14;102540.13;;;15.50;100.00
12987;BME280;58897;51.960;5.582;2023-05-25T08:35:41;102535.31;;;15.79;100.00
12987;BME280;58897;51.960;5.582;2023-05-25T08:38:08;102531.97;;;15.85;100.00
12987;BME280;58897;51.960;5.582;2023-05-25T08:40:35;102537.34;;;15.77;100.00
12987;BME280;58897;51.960;5.582;2023-05-25T08:43:01;102536.38;;;15.68;100.00
12987;BME280;58897;51.960;5.582;2023-05-25T08:45:28;102535.75;;;15.92;100.00
12987;BME280;58897;51.960;5.582;2023-05-25T08:48:06;102535.78;;;16.18;100.00
12987;BME280;58897;51.960;5.582;2023-05-25T08:50:35;102536.97;;;16.41;100.00
12987;BME280;58897;51.960;5.582;2023-05-25T08:53:04;102533.25;;;16.24;100.00
12987;BME280;58897;51.960;5.582;2023-05-25T08:55:36;102531.75;;;16.47;100.00
12987;BME280;58897;51.960;5.582;2023-05-25T08:58:16;102536.09;;;16.58;100.00
12987;BME280;58897;51.960;5.582;2023-05-25T09:00:49;102536.78;;;16.34;100.00
12987;BME280;58897;51.960;5.582;2023-05-25T09:03:18;102532.63;;;16.30;100.00
12987;BME280;58897;51.960;5.582;2023-05-25T09:05:46;102536.66;;;16.70;100.00
12987;BME280;58897;51.960;5.582;2023-05-25T09:08:13;102528.66;;;16.68;100.00
12987;BME280;58897;51.960;5.582;2023-05-25T09:10:41;102530.28;;;16.95;100.00
12987;BME280;58897;51.960;5.582;2023-05-25T09:13:07;102531.28;;;18.81;100.00
12987;BME280;58897;51.960;5.582;2023-05-25T09:15:48;102524.88;;;18.41;100.00
12987;BME280;58897;51.960;5.582;2023-05-25T09:18:15;102531.19;;;18.58;100.00
12987;BME280;58897;51.960;5.582;2023-05-25T09:20:41;102541.50;;;17.67;100.00
12987;BME280;58897;51.960;5.582;2023-05-25T09:23:12;102548.53;;;17.28;100.00
12987;BME280;58897;51.960;5.582;2023-05-25T09:25:39;102541.09;;;17.04;100.00
12987;BME280;58897;51.960;5.582;2023-05-25T09:28:07;102537.03;;;18.47;100.00
12987;BME280;58897;51.960;5.582;2023-05-25T09:30:52;102530.22;;;20.27;100.00
12987;BME280;58897;51.960;5.582;2023-05-25T09:33:19;102523.44;;;20.82;100.00
12987;BME280;58897;51.960;5.582;2023-05-25T09:35:47;102528.72;;;21.27;100.00
12987;BME280;58897;51.960;5.582;2023-05-25T09:38:14;102530.91;;;20.21;100.00
12987;BME280;58897;51.960;5.582;2023-05-25T09:40:42;102535.94;;;19.11;100.00
12987;BME280;58897;51.960;5.582;2023-05-25T09:43:11;102529.88;;;18.30;100.00
12987;BME280;58897;51.960;5.582;2023-05-25T09:45:47;102529.00;;;18.05;100.00
12987;BME280;58897;51.960;5.582;2023-05-25T09:48:14;102523.91;;;17.70;100.00
12987;BME280;58897;51.960;5.582;2023-05-25T09:50:41;102518.06;;;20.22;100.00
12987;BME280;58897;51.960;5.582;2023-05-25T09:53:09;102516.19;;;21.25;100.00
12987;BME280;58897;51.960;5.582;2023-05-25T09:55:36;102508.19;;;21.44;100.00
12987;BME280;58897;51.960;5.582;2023-05-25T09:58:21;102513.44;;;21.61;98.97
12987;BME280;58897;51.960;5.582;2023-05-25T10:00:54;102537.25;;;19.62;100.00
12987;BME280;58897;51.960;5.582;2023-05-25T10:03:21;102532.44;;;18.94;100.00
12987;BME280;58897;51.960;5.582;2023-05-25T10:05:48;102528.75;;;19.18;100.00
12987;BME280;58897;51.960;5.582;2023-05-25T10:08:16;102527.25;;;18.69;100.00
12987;BME280;58897;51.960;5.582;2023-05-25T10:10:45;102530.88;;;18.53;100.00
12987;BME280;58897;51.960;5.582;2023-05-25T10:13:13;102533.63;;;18.13;100.00
12987;BME280;58897;51.960;5.582;2023-05-25T10:15:43;102522.13;;;18.41;100.00
12987;BME280;58897;51.960;5.582;2023-05-25T10:18:12;102523.41;;;18.07;100.00
12987;BME280;58897;51.960;5.582;2023-05-25T10:20:41;102526.94;;;18.47;100.00
12987;BME280;58897;51.960;5.582;2023-05-25T10:23:13;102524.34;;;18.54;100.00
12987;BME280;58897;51.960;5.582;2023-05-25T10:25:46;102529.88;;;18.93;100.00
12987;BME280;58897;51.960;5.582;2023-05-25T10:28:21;102521.94;;;19.06;100.00
12987;BME280;58897;51.960;5.582;2023-05-25T10:30:51;102520.28;;;18.26;100.00
12987;BME280;58897;51.960;5.582;2023-05-25T10:33:19;102522.66;;;18.37;100.00
12987;BME280;58897;51.960;5.582;2023-05-25T10:35:48;102528.50;;;18.10;100.00
12987;BME280;58897;51.960;5.582;2023-05-25T10:38:34;102527.31;;;20.21;100.00
12987;BME280;58897;51.960;5.582;2023-05-25T10:41:03;102522.66;;;21.32;100.00
12987;BME280;58897;51.960;5.582;2023-05-25T10:43:31;102512.91;;;21.29;96.22
12987;BME280;58897;51.960;5.582;2023-05-25T10:45:58;102516.66;;;21.85;92.88
12987;BME280;58897;51.960;5.582;2023-05-25T10:48:37;102507.63;;;22.40;93.81
12987;BME280;58897;51.960;5.582;2023-05-25T10:51:04;102521.25;;;20.92;95.02
12987;BME280;58897;51.960;5.582;2023-05-25T10:53:35;102521.81;;;20.73;99.31
12987;BME280;58897;51.960;5.582;2023-05-25T10:56:03;102523.38;;;20.23;100.00
12987;BME280;58897;51.960;5.582;2023-05-25T10:58:31;102524.69;;;19.67;100.00
12987;BME280;58897;51.960;5.582;2023-05-25T11:01:16;102526.53;;;18.67;100.00
12987;BME280;58897;51.960;5.582;2023-05-25T11:09:22;102533.69;;;18.84;100.00
12987;BME280;58897;51.960;5.582;2023-05-25T11:17:09;102514.72;;;20.93;100.00
12987;BME280;58897;51.960;5.582;2023-05-25T11:19:40;102507.88;;;21.18;95.80
12987;BME280;58897;51.960;5.582;2023-05-25T11:24:52;102519.03;;;19.92;100.00
12987;BME280;58897;51.960;5.582;2023-05-25T11:27:26;102522.81;;;19.68;100.00
12987;BME280;58897;51.960;5.582;2023-05-25T11:29:54;102520.25;;;19.36;100.00
12987;BME280;58897;51.960;5.582;2023-05-25T11:32:25;102518.22;;;18.99;100.00
12987;BME280;58897;51.960;5.582;2023-05-25T11:34:53;102514.97;;;20.02;100.00
12987;BME280;58897;51.960;5.582;2023-05-25T11:37:21;102506.31;;;20.80;100.00
12987;BME280;58897;51.960;5.582;2023-05-25T11:39:51;102507.47;;;21.36;96.14
12987;BME280;58897;51.960;5.582;2023-05-25T11:42:19;102503.94;;;20.33;100.00
12987;BME280;58897;51.960;5.582;2023-05-25T11:44:46;102497.91;;;19.92;100.00
12987;BME280;58897;51.960;5.582;2023-05-25T11:47:13;102498.22;;;19.97;100.00
12987;BME280;58897;51.960;5.582;2023-05-25T11:49:44;102495.81;;;19.80;100.00
12987;BME280;58897;51.960;5.582;2023-05-25T11:52:13;102500.25;;;19.81;100.00
12987;BME280;58897;51.960;5.582;2023-05-25T11:54:41;102506.28;;;19.53;100.00
12987;BME280;58897;51.960;5.582;2023-05-25T11:57:23;102498.31;;;19.44;100.00
12987;BME280;58897;51.960;5.582;2023-05-25T11:59:55;102489.97;;;19.60;100.00
12987;BME280;58897;51.960;5.582;2023-05-25T12:02:23;102488.94;;;19.84;100.00
12987;BME280;58897;51.960;5.582;2023-05-25T12:04:59;102487.38;;;20.56;99.59
12987;BME280;58897;51.960;5.582;2023-05-25T12:07:30;102485.00;;;20.15;98.91
12987;BME280;58897;51.960;5.582;2023-05-25T12:10:07;102483.91;;;20.10;100.00
12987;BME280;58897;51.960;5.582;2023-05-25T12:12:47;102475.75;;;20.02;100.00
12987;BME280;58897;51.960;5.582;2023-05-25T12:15:17;102483.63;;;19.59;98.63
12987;BME280;58897;51.960;5.582;2023-05-25T12:17:46;102472.53;;;20.65;99.63
12987;BME280;58897;51.960;5.582;2023-05-25T12:20:15;102475.94;;;21.17;88.28
12987;BME280;58897;51.960;5.582;2023-05-25T12:22:42;102473.44;;;20.72;91.42
12987;BME280;58897;51.960;5.582;2023-05-25T12:25:11;102471.75;;;20.85;87.34
12987;BME280;58897;51.960;5.582;2023-05-25T12:27:38;102477.13;;;19.98;93.03
12987;BME280;58897;51.960;5.582;2023-05-25T12:30:07;102474.88;;;20.39;99.68
12987;BME280;58897;51.960;5.582;2023-05-25T12:32:53;102475.44;;;21.28;95.46
12987;BME280;58897;51.960;5.582;2023-05-25T12:35:20;102474.47;;;20.85;94.94
12987;BME280;58897;51.960;5.582;2023-05-25T12:37:47;102472.22;;;20.08;97.99
12987;BME280;58897;51.960;5.582;2023-05-25T12:40:18;102481.03;;;20.18;100.00
12987;BME280;58897;51.960;5.582;2023-05-25T12:42:54;102475.72;;;20.24;99.09
12987;BME280;58897;51.960;5.582;2023-05-25T12:45:22;102477.69;;;19.93;100.00
12987;BME280;58897;51.960;5.582;2023-05-25T12:47:48;102480.47;;;20.30;98.79
12987;BME280;58897;51.960;5.582;2023-05-25T12:50:15;102472.78;;;20.41;100.00
12987;BME280;58897;51.960;5.582;2023-05-25T12:52:44;102478.75;;;21.81;96.38
12987;BME280;58897;51.960;5.582;2023-05-25T12:55:43;102473.38;;;22.22;84.30
12987;BME280;58897;51.960;5.582;2023-05-25T12:58:27;102469.13;;;21.49;95.70
12987;BME280;58897;51.960;5.582;2023-05-25T13:00:53;102473.72;;;20.48;92.79
12987;BME280;58897;51.960;5.582;2023-05-25T13:03:20;102481.22;;;20.02;94.36
12987;BME280;58897;51.960;5.582;2023-05-25T13:05:46;102473.13;;;20.23;93.98